Trufant, Michigan
Current Conditions -  °F | °C
As of 2:34 PM on Thursday 18 Dec 2014 (Local Time) from KRQB Reporting Station
Overcast Overcast  
Wind Chill: 28°   Ceiling: 1100
Heat Index: 28°   Visibility: 10mi
Dew Point: 26°   Wind: 0mph
Humidity: 92%   Direction: NA
Pressure: 30.15"   Gusts: NA
Location:  43.31°N, 85.35°W
Report Text: KRQB 181934Z AUTO 00000KT 10SM OVC011 M02/M03 A3015 RMK AO2 T10201032
Loading
Personal Weather Stations






























Interactive Weather Map New forecast layout! Learn more

10-Day Weather Forecast

Advertisements
Track Severe Weather on mobile